Time;durP1;ratioP1;P1;durP2;ratioP2;P2;SDS_P1;SDS_P2;PMS_P1;PMS_P2;Temp;Humidity;BMP_temperature;BMP_pressure;BME280_temperature;BME280_humidity;BME280_pressure;Samples;Min_cycle;Max_cycle;Signal;HPM_P1;HPM_P2
2022/03/14 00:02:04;;;;;;;;;;;;;;;17.15;35.70;102392.44;4945173;29;814;-56
2022/03/14 00:04:29;;;;;;;;;;;;;;;17.51;35.02;102389.72;4939529;29;783;-55
2022/03/14 00:06:55;;;;;;;;;;;;;;;17.90;34.39;102392.75;4939316;29;774;-55
2022/03/14 00:09:21;;;;;;;;;;;;;;;18.16;33.52;102391.41;4939686;29;754;-54
2022/03/14 00:11:48;;;;;;;;;;;;;;;16.86;35.94;102395.03;4940604;29;830;-56
2022/03/14 00:14:14;;;;;;;;;;;;;;;16.82;36.27;102402.06;4939477;29;901;-54
2022/03/14 00:16:41;;;;;;;;;;;;;;;16.86;36.02;102388.72;4943224;29;902;-53
2022/03/14 00:19:07;;;;;;;;;;;;;;;16.90;36.16;102389.91;4939502;29;1894;-55
2022/03/14 00:21:35;;;;;;;;;;;;;;;17.14;35.68;102395.44;4939556;29;865;-53
2022/03/14 00:24:00;;;;;;;;;;;;;;;17.44;35.17;102398.91;4943465;29;827;-56
2022/03/14 00:26:26;;;;;;;;;;;;;;;17.82;34.14;102393.97;4939345;29;756;-56
2022/03/14 00:28:53;;;;;;;;;;;;;;;18.04;33.76;102393.34;4951758;29;811;-52
2022/03/14 00:31:19;;;;;;;;;;;;;;;18.03;33.92;102397.19;4950600;29;1263;-54
2022/03/14 00:33:44;;;;;;;;;;;;;;;17.52;34.94;102405.16;4938764;29;1011;-54
2022/03/14 00:36:10;;;;;;;;;;;;;;;17.13;35.29;102402.84;4941135;29;797;-53
2022/03/14 00:38:36;;;;;;;;;;;;;;;17.01;35.91;102407.50;4944000;28;1977;-56
2022/03/14 00:41:05;;;;;;;;;;;;;;;16.89;36.07;102413.00;4942857;29;846;-56
2022/03/14 00:43:31;;;;;;;;;;;;;;;16.90;36.08;102409.16;4942455;29;912;-55
2022/03/14 00:45:56;;;;;;;;;;;;;;;17.33;35.37;102410.75;4945224;29;1016;-53
2022/03/14 00:48:22;;;;;;;;;;;;;;;17.65;34.56;102418.63;4944255;29;814;-53
2022/03/14 00:50:49;;;;;;;;;;;;;;;17.82;34.13;102417.91;4946858;29;870;-54
2022/03/14 00:53:14;;;;;;;;;;;;;;;18.04;33.75;102413.44;4942522;29;998;-54
2022/03/14 00:55:40;;;;;;;;;;;;;;;17.80;34.26;102415.41;4942945;29;751;-54
2022/03/14 00:58:07;;;;;;;;;;;;;;;16.74;36.00;102410.66;4942414;29;1906;-54
2022/03/14 01:00:32;;;;;;;;;;;;;;;17.00;35.80;102414.91;4944632;29;893;-55
2022/03/14 01:02:59;;;;;;;;;;;;;;;17.44;35.10;102414.59;4946538;29;759;-53
2022/03/14 01:05:24;;;;;;;;;;;;;;;17.87;34.30;102423.53;4942456;29;882;-56
2022/03/14 01:07:49;;;;;;;;;;;;;;;18.05;34.04;102415.13;4942719;29;823;-54
2022/03/14 01:10:15;;;;;;;;;;;;;;;17.59;34.70;102420.44;4946617;29;890;-54
2022/03/14 01:12:41;;;;;;;;;;;;;;;17.26;35.14;102426.53;4942686;29;798;-54
2022/03/14 01:15:06;;;;;;;;;;;;;;;17.08;35.64;102432.97;4946122;29;779;-54
2022/03/14 01:17:32;;;;;;;;;;;;;;;16.91;36.11;102435.56;4945540;29;1906;-54
2022/03/14 01:19:57;;;;;;;;;;;;;;;17.21;35.59;102445.66;4942614;29;794;-54
2022/03/14 01:22:23;;;;;;;;;;;;;;;17.55;34.75;102434.91;4942404;29;815;-54
2022/03/14 01:24:48;;;;;;;;;;;;;;;17.94;34.40;102443.53;4942162;29;771;-54
2022/03/14 01:27:13;;;;;;;;;;;;;;;17.95;33.89;102439.69;4942485;29;897;-54
2022/03/14 01:29:39;;;;;;;;;;;;;;;17.90;34.04;102437.63;4942059;29;759;-54
2022/03/14 01:32:07;;;;;;;;;;;;;;;17.74;34.38;102444.72;4949887;29;954;-54
2022/03/14 01:34:33;;;;;;;;;;;;;;;17.57;34.64;102436.34;4954330;29;1100;-54
2022/03/14 01:36:58;;;;;;;;;;;;;;;17.33;35.24;102435.50;4960482;29;828;-55
2022/03/14 01:39:24;;;;;;;;;;;;;;;17.06;35.78;102443.38;4960359;29;1918;-55
2022/03/14 01:41:49;;;;;;;;;;;;;;;16.87;35.77;102440.69;4948370;28;850;-53
2022/03/14 01:44:15;;;;;;;;;;;;;;;16.89;36.06;102454.19;4959335;29;887;-54
2022/03/14 01:46:40;;;;;;;;;;;;;;;17.01;35.96;102457.81;4954857;28;885;-52
2022/03/14 01:49:05;;;;;;;;;;;;;;;17.20;35.43;102449.50;4941976;29;839;-54
2022/03/14 01:51:32;;;;;;;;;;;;;;;17.63;34.57;102453.81;4941633;29;1485;-55
2022/03/14 01:53:57;;;;;;;;;;;;;;;17.83;34.05;102458.09;4952297;29;807;-55
2022/03/14 01:56:23;;;;;;;;;;;;;;;18.01;34.10;102465.41;4959986;29;814;-57
2022/03/14 01:58:48;;;;;;;;;;;;;;;17.77;34.42;102460.72;4944048;28;1987;-55
2022/03/14 02:01:14;;;;;;;;;;;;;;;16.70;36.47;102456.97;4945659;29;877;-56
2022/03/14 02:03:40;;;;;;;;;;;;;;;16.91;36.09;102468.53;4941476;29;898;-55
2022/03/14 02:06:06;;;;;;;;;;;;;;;17.10;35.60;102461.88;4944395;29;784;-55
2022/03/14 02:08:31;;;;;;;;;;;;;;;17.34;35.35;102470.16;4941733;29;768;-54
2022/03/14 02:10:57;;;;;;;;;;;;;;;17.69;34.58;102474.84;4941392;29;834;-54
2022/03/14 02:13:24;;;;;;;;;;;;;;;17.96;33.98;102474.38;4941004;29;771;-55
2022/03/14 02:15:49;;;;;;;;;;;;;;;17.88;34.11;102466.44;4943227;29;882;-54
2022/03/14 02:18:15;;;;;;;;;;;;;;;17.78;34.17;102473.41;4942622;29;1985;-54
2022/03/14 02:20:40;;;;;;;;;;;;;;;17.32;35.18;102486.09;4945645;28;879;-55
2022/03/14 02:23:05;;;;;;;;;;;;;;;17.23;35.38;102471.81;4941011;29;851;-54
2022/03/14 02:25:34;;;;;;;;;;;;;;;17.19;35.55;102470.63;4941193;29;865;-55
2022/03/14 02:27:59;;;;;;;;;;;;;;;17.09;35.53;102471.19;4941124;29;858;-54
2022/03/14 02:30:25;;;;;;;;;;;;;;;17.30;35.46;102477.22;4942665;29;768;-56
2022/03/14 02:32:50;;;;;;;;;;;;;;;17.88;34.31;102466.44;4946355;29;865;-56
2022/03/14 02:35:16;;;;;;;;;;;;;;;18.06;33.86;102491.13;4940677;29;1062;-57
2022/03/14 02:37:44;;;;;;;;;;;;;;;17.61;34.65;102477.97;4940727;29;1906;-56
2022/03/14 02:40:12;;;;;;;;;;;;;;;17.24;35.35;102480.94;4946752;29;838;-55
2022/03/14 02:42:38;;;;;;;;;;;;;;;17.01;35.52;102474.31;4953368;29;835;-55
2022/03/14 02:45:04;;;;;;;;;;;;;;;17.04;35.76;102490.31;4952728;28;962;-53
2022/03/14 02:47:30;;;;;;;;;;;;;;;17.27;35.28;102477.69;4945648;29;992;-56
2022/03/14 02:49:55;;;;;;;;;;;;;;;17.81;34.34;102482.25;4940082;29;906;-56
2022/03/14 02:52:20;;;;;;;;;;;;;;;17.94;33.86;102487.56;4940606;29;815;-55
2022/03/14 02:54:50;;;;;;;;;;;;;;;18.18;33.45;102493.84;4941009;29;873;-57
2022/03/14 02:57:16;;;;;;;;;;;;;;;17.08;35.49;102491.53;4942762;29;855;-54
2022/03/14 02:59:41;;;;;;;;;;;;;;;17.02;35.51;102494.38;4939951;29;1965;-54
2022/03/14 03:02:07;;;;;;;;;;;;;;;16.90;35.93;102488.81;4943554;29;877;-55
2022/03/14 03:04:32;;;;;;;;;;;;;;;17.22;35.35;102491.31;4951226;29;814;-54
2022/03/14 03:06:58;;;;;;;;;;;;;;;17.67;34.38;102492.66;4958983;28;807;-54
2022/03/14 03:09:26;;;;;;;;;;;;;;;17.90;33.88;102489.91;4958200;28;1047;-54
2022/03/14 03:11:53;;;;;;;;;;;;;;;18.00;33.77;102496.75;4942346;28;837;-54
2022/03/14 03:14:18;;;;;;;;;;;;;;;17.82;33.96;102497.69;4940613;29;804;-56
2022/03/14 03:16:44;;;;;;;;;;;;;;;17.49;34.75;102512.88;4947600;29;825;-54
2022/03/14 03:19:09;;;;;;;;;;;;;;;17.14;35.37;102498.00;4939906;29;1975;-55
2022/03/14 03:21:38;;;;;;;;;;;;;;;17.09;35.45;102512.44;4940356;28;775;-55
2022/03/14 03:24:05;;;;;;;;;;;;;;;17.01;35.47;102501.78;4945292;29;894;-55
2022/03/14 03:26:31;;;;;;;;;;;;;;;17.54;34.73;102515.75;4958685;28;801;-55
2022/03/14 03:28:56;;;;;;;;;;;;;;;17.93;33.78;102519.72;4958474;29;1525;-55
2022/03/14 03:31:21;;;;;;;;;;;;;;;18.08;33.61;102510.16;4955870;28;881;-55
2022/03/14 03:33:47;;;;;;;;;;;;;;;17.67;33.97;102521.03;4939752;29;1280;-55
2022/03/14 03:36:13;;;;;;;;;;;;;;;17.19;35.14;102525.59;4944947;29;860;-55
2022/03/14 03:38:38;;;;;;;;;;;;;;;17.00;35.44;102518.50;4939639;29;1914;-53
2022/03/14 03:41:04;;;;;;;;;;;;;;;16.84;35.88;102523.53;4939930;28;857;-54
2022/03/14 03:43:29;;;;;;;;;;;;;;;16.84;35.89;102528.22;4939773;29;874;-56
2022/03/14 03:45:55;;;;;;;;;;;;;;;17.00;35.37;102522.09;4943631;29;842;-55
2022/03/14 03:48:20;;;;;;;;;;;;;;;17.58;34.36;102531.53;4941617;29;834;-55
2022/03/14 03:50:46;;;;;;;;;;;;;;;17.87;33.92;102533.59;4939766;29;858;-57
2022/03/14 03:53:12;;;;;;;;;;;;;;;17.98;33.74;102535.53;4939567;29;795;-55
2022/03/14 03:55:37;;;;;;;;;;;;;;;17.86;33.69;102540.19;4939341;29;830;-55
2022/03/14 03:58:03;;;;;;;;;;;;;;;17.44;34.53;102549.34;4939284;29;1910;-55
2022/03/14 04:00:28;;;;;;;;;;;;;;;17.12;35.02;102540.53;4943581;29;1139;-56
2022/03/14 04:02:54;;;;;;;;;;;;;;;17.06;35.45;102542.31;4958222;29;809;-56
2022/03/14 04:05:20;;;;;;;;;;;;;;;17.22;35.10;102557.28;4958069;29;915;-56
2022/03/14 04:07:46;;;;;;;;;;;;;;;17.64;34.43;102562.75;4958074;29;823;-57
2022/03/14 04:10:13;;;;;;;;;;;;;;;17.87;34.04;102561.94;4957682;28;1049;-55
2022/03/14 04:12:40;;;;;;;;;;;;;;;17.96;33.58;102565.19;4957935;29;916;-53
2022/03/14 04:15:09;;;;;;;;;;;;;;;17.69;34.27;102567.56;4941101;28;783;-55
2022/03/14 04:17:35;;;;;;;;;;;;;;;17.38;34.80;102575.88;4945121;29;1977;-56
2022/03/14 04:20:02;;;;;;;;;;;;;;;17.06;35.22;102569.78;4939298;29;1019;-56
2022/03/14 04:22:28;;;;;;;;;;;;;;;17.00;35.34;102581.69;4949588;29;838;-57
2022/03/14 04:24:53;;;;;;;;;;;;;;;17.19;34.98;102580.59;4941600;28;1169;-53
2022/03/14 04:27:19;;;;;;;;;;;;;;;17.75;34.30;102572.09;4944065;29;818;-53
2022/03/14 04:29:45;;;;;;;;;;;;;;;17.99;33.65;102570.22;4939196;29;974;-56
2022/03/14 04:32:10;;;;;;;;;;;;;;;17.60;34.14;102567.09;4944414;29;885;-54
2022/03/14 04:34:35;;;;;;;;;;;;;;;17.18;34.98;102559.69;4938965;29;1110;-55
2022/03/14 04:37:01;;;;;;;;;;;;;;;17.07;35.17;102555.81;4939342;29;882;-56
2022/03/14 04:39:26;;;;;;;;;;;;;;;16.82;35.83;102555.09;4940538;29;1918;-55
2022/03/14 04:41:53;;;;;;;;;;;;;;;16.88;35.77;102563.25;4939278;29;791;-56
2022/03/14 04:44:19;;;;;;;;;;;;;;;17.32;34.96;102567.72;4939628;29;959;-54
2022/03/14 04:46:46;;;;;;;;;;;;;;;17.83;34.08;102579.19;4942125;29;874;-55
2022/03/14 04:49:13;;;;;;;;;;;;;;;17.93;33.60;102572.03;4939258;29;743;-56
2022/03/14 04:51:39;;;;;;;;;;;;;;;18.00;33.49;102563.66;4952485;29;1500;-59
2022/03/14 04:54:05;;;;;;;;;;;;;;;17.78;33.86;102580.72;4948284;28;1354;-55
2022/03/14 04:56:30;;;;;;;;;;;;;;;17.54;34.35;102574.34;4938775;29;996;-57
2022/03/14 04:58:56;;;;;;;;;;;;;;;17.30;34.78;102570.69;4947240;29;1918;-56
2022/03/14 05:01:23;;;;;;;;;;;;;;;17.16;34.99;102580.22;4950286;29;1358;-57
2022/03/14 05:03:49;;;;;;;;;;;;;;;17.02;35.20;102585.91;4938492;29;984;-56
2022/03/14 05:06:16;;;;;;;;;;;;;;;17.05;35.31;102590.09;4939190;29;1066;-54
2022/03/14 05:08:42;;;;;;;;;;;;;;;17.36;34.76;102583.53;4938864;28;782;-56
2022/03/14 05:11:09;;;;;;;;;;;;;;;17.47;34.69;102598.34;4957609;29;855;-50
2022/03/14 05:13:35;;;;;;;;;;;;;;;17.36;34.99;102597.28;4954838;29;1436;-52
2022/03/14 05:16:00;;;;;;;;;;;;;;;17.36;35.34;102605.53;4945346;29;814;-51
2022/03/14 05:18:26;;;;;;;;;;;;;;;17.18;35.50;102605.56;4943576;29;1906;-53
2022/03/14 05:20:51;;;;;;;;;;;;;;;17.05;35.54;102607.41;4939112;29;843;-53
2022/03/14 05:23:17;;;;;;;;;;;;;;;17.18;35.43;102617.41;4942074;29;839;-57
2022/03/14 05:25:42;;;;;;;;;;;;;;;17.57;34.71;102619.78;4951727;28;1145;-52
2022/03/14 05:28:08;;;;;;;;;;;;;;;18.06;33.87;102616.91;4960347;28;1102;-53
2022/03/14 05:30:33;;;;;;;;;;;;;;;18.13;33.46;102621.22;4946782;28;940;-52
2022/03/14 05:32:59;;;;;;;;;;;;;;;17.76;34.36;102615.88;4952390;28;987;-53
2022/03/14 05:35:25;;;;;;;;;;;;;;;17.45;34.81;102628.03;4946914;28;1062;-55
2022/03/14 05:37:50;;;;;;;;;;;;;;;17.12;35.58;102628.50;4942175;29;1918;-54
2022/03/14 05:40:18;;;;;;;;;;;;;;;17.01;35.70;102624.59;4941865;29;797;-51
2022/03/14 05:42:45;;;;;;;;;;;;;;;17.36;35.34;102619.28;4946064;29;998;-51
2022/03/14 05:45:12;;;;;;;;;;;;;;;18.59;32.99;102626.94;4941705;29;711;-51
2022/03/14 05:47:37;;;;;;;;;;;;;;;17.71;34.61;102631.44;4944061;29;1047;-55
2022/03/14 05:50:03;;;;;;;;;;;;;;;17.46;34.98;102624.22;4941838;29;732;-53
2022/03/14 05:52:29;;;;;;;;;;;;;;;17.44;34.91;102632.66;4943813;29;1456;-54
2022/03/14 05:54:55;;;;;;;;;;;;;;;17.13;34.96;102627.44;4942443;29;805;-54
2022/03/14 05:57:20;;;;;;;;;;;;;;;17.30;35.38;102636.69;4941918;29;784;-55
2022/03/14 05:59:46;;;;;;;;;;;;;;;17.38;35.06;102639.13;4941679;29;1981;-56
2022/03/14 06:02:12;;;;;;;;;;;;;;;17.28;35.28;102634.19;4947390;29;985;-56
2022/03/14 06:04:38;;;;;;;;;;;;;;;17.19;35.53;102641.06;4950839;29;1481;-53
2022/03/14 06:07:03;;;;;;;;;;;;;;;17.08;35.61;102650.09;4948355;28;1496;-53
2022/03/14 06:09:29;;;;;;;;;;;;;;;17.05;35.34;102645.88;4941202;29;1211;-54
2022/03/14 06:11:55;;;;;;;;;;;;;;;17.19;35.19;102660.31;4945611;28;1350;-55
2022/03/14 06:14:20;;;;;;;;;;;;;;;17.55;34.68;102657.72;4940511;29;740;-53
2022/03/14 06:16:46;;;;;;;;;;;;;;;17.89;34.03;102666.28;4952911;29;964;-54
2022/03/14 06:19:11;;;;;;;;;;;;;;;18.01;33.56;102658.09;4941160;29;1968;-54
2022/03/14 06:21:39;;;;;;;;;;;;;;;17.98;33.67;102675.06;4941802;29;782;-50
2022/03/14 06:24:05;;;;;;;;;;;;;;;17.79;33.92;102664.97;4941421;29;826;-53
2022/03/14 06:26:30;;;;;;;;;;;;;;;17.61;34.16;102673.28;4941173;29;955;-53
2022/03/14 06:28:56;;;;;;;;;;;;;;;17.41;33.96;102679.91;4940858;29;711;-53
2022/03/14 06:31:21;;;;;;;;;;;;;;;17.43;33.77;102690.66;4944619;29;924;-56
2022/03/14 06:33:49;;;;;;;;;;;;;;;17.16;33.59;102684.69;4945604;28;991;-56
2022/03/14 06:36:14;;;;;;;;;;;;;;;17.00;33.47;102683.38;4958940;28;1049;-54
2022/03/14 06:38:40;;;;;;;;;;;;;;;16.85;33.47;102689.25;4959958;29;1906;-55
2022/03/14 06:41:07;;;;;;;;;;;;;;;17.62;32.05;102672.19;4959315;29;961;-55
2022/03/14 06:43:33;;;;;;;;;;;;;;;17.39;32.10;102679.31;4955903;28;1014;-56
2022/03/14 06:45:58;;;;;;;;;;;;;;;17.12;32.96;102684.28;4945307;29;996;-53
2022/03/14 06:48:24;;;;;;;;;;;;;;;16.94;33.17;102671.41;4958792;28;873;-56
2022/03/14 06:50:49;;;;;;;;;;;;;;;16.82;33.55;102679.56;4959233;29;930;-56
2022/03/14 06:53:15;;;;;;;;;;;;;;;16.99;32.96;102670.72;4958882;29;823;-53
2022/03/14 06:55:40;;;;;;;;;;;;;;;17.52;32.29;102681.03;4958676;29;890;-54
2022/03/14 06:58:06;;;;;;;;;;;;;;;18.03;31.38;102688.97;4958828;28;1898;-53
2022/03/14 07:00:31;;;;;;;;;;;;;;;18.22;30.90;102693.28;4946012;28;943;-53
2022/03/14 07:02:57;;;;;;;;;;;;;;;17.69;32.18;102694.94;4945165;28;750;-53
2022/03/14 07:05:24;;;;;;;;;;;;;;;17.23;33.06;102693.69;4940607;29;814;-54
2022/03/14 07:07:52;;;;;;;;;;;;;;;17.02;33.41;102687.59;4940534;29;826;-54
2022/03/14 07:10:18;;;;;;;;;;;;;;;16.90;33.57;102692.16;4938423;29;1592;-53
2022/03/14 07:12:46;;;;;;;;;;;;;;;16.85;33.88;102700.25;4946431;29;805;-53
2022/03/14 07:15:15;;;;;;;;;;;;;;;17.06;33.54;102708.03;4940433;29;873;-52
2022/03/14 07:17:41;;;;;;;;;;;;;;;17.83;32.25;102708.53;4942947;29;1906;-55
2022/03/14 07:20:07;;;;;;;;;;;;;;;17.50;32.77;102707.94;4940277;29;839;-55
2022/03/14 07:22:36;;;;;;;;;;;;;;;17.27;33.16;102714.16;4940085;28;865;-55
2022/03/14 07:25:03;;;;;;;;;;;;;;;17.13;33.56;102720.88;4942322;29;791;-54
2022/03/14 07:27:28;;;;;;;;;;;;;;;17.09;33.66;102717.75;4940207;29;830;-52
2022/03/14 07:29:54;;;;;;;;;;;;;;;17.16;33.26;102717.69;4940513;29;874;-54
2022/03/14 07:32:20;;;;;;;;;;;;;;;17.51;32.87;102719.75;4942814;29;1029;-53
2022/03/14 07:34:45;;;;;;;;;;;;;;;17.76;32.49;102717.69;4939538;29;1185;-54
2022/03/14 07:37:11;;;;;;;;;;;;;;;18.09;31.94;102721.03;4945577;29;791;-55
2022/03/14 07:39:36;;;;;;;;;;;;;;;18.04;32.04;102724.50;4939660;28;1906;-51
2022/03/14 07:42:02;;;;;;;;;;;;;;;17.57;32.71;102725.19;4940028;29;890;-54
2022/03/14 07:44:27;;;;;;;;;;;;;;;17.33;33.21;102723.38;4939333;29;842;-55
2022/03/14 07:46:53;;;;;;;;;;;;;;;17.20;33.58;102722.47;4946063;29;862;-56
2022/03/14 07:49:20;;;;;;;;;;;;;;;17.02;34.07;102720.56;4950264;28;1018;-55
2022/03/14 07:51:45;;;;;;;;;;;;;;;17.81;32.53;102736.28;4956010;28;1098;-55
2022/03/14 07:54:11;;;;;;;;;;;;;;;17.45;33.23;102732.53;4957979;28;865;-54
2022/03/14 07:56:36;;;;;;;;;;;;;;;17.07;33.87;102726.22;4958017;28;816;-55
2022/03/14 07:59:03;;;;;;;;;;;;;;;16.98;34.01;102737.75;4957413;28;1914;-55
2022/03/14 08:01:28;;;;;;;;;;;;;;;18.07;32.38;102735.03;4954344;28;810;-54
2022/03/14 08:03:54;;;;;;;;;;;;;;;18.50;31.30;102740.50;4944770;29;1063;-54
2022/03/14 08:06:22;;;;;;;;;;;;;;;18.18;31.94;102740.81;4945723;28;994;-53
2022/03/14 08:08:49;;;;;;;;;;;;;;;18.18;31.82;102740.81;4957437;28;1378;-54
2022/03/14 08:11:15;;;;;;;;;;;;;;;18.06;32.29;102743.53;4957428;28;1203;-56
2022/03/14 08:13:41;;;;;;;;;;;;;;;17.85;32.76;102733.88;4957583;28;1274;-54
2022/03/14 08:16:06;;;;;;;;;;;;;;;17.57;32.98;102735.31;4953920;28;1365;-53
2022/03/14 08:18:32;;;;;;;;;;;;;;;17.55;33.41;102737.47;4957424;28;1902;-56
2022/03/14 08:20:57;;;;;;;;;;;;;;;18.14;32.52;102743.19;4957673;28;1057;-55
2022/03/14 08:23:23;;;;;;;;;;;;;;;18.44;31.77;102740.38;4957439;28;943;-54
2022/03/14 08:25:49;;;;;;;;;;;;;;;18.16;31.99;102737.44;4957359;28;1046;-53
2022/03/14 08:28:14;;;;;;;;;;;;;;;17.99;32.47;102742.81;4956024;29;883;-56
2022/03/14 08:30:41;;;;;;;;;;;;;;;17.70;32.88;102750.84;4940646;29;981;-56
2022/03/14 08:33:06;;;;;;;;;;;;;;;17.69;33.30;102751.91;4939411;29;1240;-56
2022/03/14 08:35:34;;;;;;;;;;;;;;;18.10;32.39;102756.63;4939460;29;786;-55
2022/03/14 08:37:59;;;;;;;;;;;;;;;18.37;31.99;102749.81;4938808;29;1910;-55
2022/03/14 08:40:25;;;;;;;;;;;;;;;18.59;31.61;102761.09;4939347;29;854;-52
2022/03/14 08:42:51;;;;;;;;;;;;;;;18.62;31.54;102758.72;4939130;29;831;-54
2022/03/14 08:45:17;;;;;;;;;;;;;;;18.78;31.20;102761.84;4939632;29;933;-55
2022/03/14 08:47:43;;;;;;;;;;;;;;;18.86;31.47;102760.63;4944049;29;1039;-54
2022/03/14 08:50:09;;;;;;;;;;;;;;;19.01;30.94;102749.97;4937872;29;870;-55
2022/03/14 08:52:35;;;;;;;;;;;;;;;19.12;30.98;102746.34;4941062;28;955;-55
2022/03/14 08:55:01;;;;;;;;;;;;;;;19.13;30.99;102741.69;4956986;28;1045;-54
2022/03/14 08:57:27;;;;;;;;;;;;;;;19.19;30.74;102750.91;4960396;28;765;-54
2022/03/14 08:59:52;;;;;;;;;;;;;;;18.61;31.63;102745.19;4961164;28;1981;-53
2022/03/14 09:02:18;;;;;;;;;;;;;;;18.08;32.76;102746.91;4949875;29;885;-53
2022/03/14 09:04:43;;;;;;;;;;;;;;;18.22;32.59;102748.38;4943039;29;774;-53
2022/03/14 09:07:10;;;;;;;;;;;;;;;18.05;32.96;102750.97;4943992;29;973;-52
2022/03/14 09:09:36;;;;;;;;;;;;;;;17.93;32.93;102750.09;4942771;29;865;-53
2022/03/14 09:12:01;;;;;;;;;;;;;;;17.76;33.43;102756.22;4942469;29;846;-53
2022/03/14 09:14:27;;;;;;;;;;;;;;;17.59;33.71;102742.28;4942942;29;745;-54
2022/03/14 09:16:52;;;;;;;;;;;;;;;17.99;32.99;102748.31;4945166;29;834;-54
2022/03/14 09:19:19;;;;;;;;;;;;;;;18.30;32.27;102747.19;4946615;29;1910;-53
2022/03/14 09:21:46;;;;;;;;;;;;;;;18.51;31.98;102750.44;4942301;29;803;-54
2022/03/14 09:24:12;;;;;;;;;;;;;;;18.78;31.45;102750.81;4942457;29;1073;-54
2022/03/14 09:26:37;;;;;;;;;;;;;;;18.89;31.23;102758.25;4942022;29;889;-55
2022/03/14 09:29:03;;;;;;;;;;;;;;;19.03;31.34;102758.84;4942150;29;808;-54
2022/03/14 09:31:29;;;;;;;;;;;;;;;19.16;30.97;102768.75;4948432;29;764;-53
2022/03/14 09:33:54;;;;;;;;;;;;;;;19.17;30.75;102758.56;4948080;28;1269;-52
2022/03/14 09:36:23;;;;;;;;;;;;;;;18.26;32.47;102760.59;4960261;28;806;-51
2022/03/14 09:38:48;;;;;;;;;;;;;;;17.96;32.87;102749.63;4958663;29;1915;-51
2022/03/14 09:41:16;;;;;;;;;;;;;;;17.91;33.27;102758.59;4959890;28;1121;-53
2022/03/14 09:43:42;;;;;;;;;;;;;;;17.89;33.20;102759.84;4958682;28;1173;-53
2022/03/14 09:46:08;;;;;;;;;;;;;;;17.81;33.50;102765.69;4951449;29;855;-51
2022/03/14 09:48:36;;;;;;;;;;;;;;;17.76;33.40;102756.22;4942084;29;825;-54
2022/03/14 09:51:06;;;;;;;;;;;;;;;17.95;33.31;102767.22;4941821;29;928;-52
2022/03/14 09:53:31;;;;;;;;;;;;;;;18.31;32.71;102765.38;4941890;29;830;-54
2022/03/14 09:55:57;;;;;;;;;;;;;;;18.40;32.19;102763.97;4941002;29;896;-54
2022/03/14 09:58:22;;;;;;;;;;;;;;;18.51;32.20;102772.47;4942363;29;1979;-52
2022/03/14 10:00:48;;;;;;;;;;;;;;;18.54;31.97;102755.50;4945558;29;858;-53
2022/03/14 10:03:14;;;;;;;;;;;;;;;18.66;32.08;102763.75;4960025;29;775;-53
2022/03/14 10:05:40;;;;;;;;;;;;;;;18.75;31.70;102771.41;4959768;28;758;-54
2022/03/14 10:08:05;;;;;;;;;;;;;;;18.78;31.66;102764.59;4959822;28;920;-53
2022/03/14 10:10:31;;;;;;;;;;;;;;;18.84;31.72;102760.03;4954217;28;897;-55
2022/03/14 10:12:57;;;;;;;;;;;;;;;18.84;31.53;102760.84;4941123;29;850;-55
2022/03/14 10:15:23;;;;;;;;;;;;;;;18.83;31.76;102769.38;4942089;29;790;-54
2022/03/14 10:17:49;;;;;;;;;;;;;;;18.89;31.56;102762.94;4942394;29;1910;-54
2022/03/14 10:20:15;;;;;;;;;;;;;;;18.93;31.55;102758.63;4941744;29;1058;-55
2022/03/14 10:22:40;;;;;;;;;;;;;;;18.94;31.50;102765.78;4941580;29;1033;-54
2022/03/14 10:25:09;;;;;;;;;;;;;;;18.97;31.42;102759.78;4941116;29;846;-54
2022/03/14 10:27:35;;;;;;;;;;;;;;;18.95;31.44;102764.72;4941438;29;818;-56
2022/03/14 10:30:02;;;;;;;;;;;;;;;18.95;31.53;102756.47;4941060;29;815;-56
2022/03/14 10:32:30;;;;;;;;;;;;;;;18.96;31.53;102756.22;4946612;29;1028;-55
2022/03/14 10:34:58;;;;;;;;;;;;;;;19.03;31.30;102752.47;4956884;29;1228;-55
2022/03/14 10:37:27;;;;;;;;;;;;;;;18.98;31.44;102755.97;4943284;28;846;-55
2022/03/14 10:39:57;;;;;;;;;;;;;;;18.92;31.47;102767.97;4941604;29;1906;-56
2022/03/14 10:42:23;;;;;;;;;;;;;;;18.65;31.98;102757.41;4941380;29;950;-57
2022/03/14 10:44:49;;;;;;;;;;;;;;;18.76;31.94;102762.06;4940803;29;810;-55
2022/03/14 10:47:15;;;;;;;;;;;;;;;18.76;31.84;102755.72;4945409;29;846;-55
2022/03/14 10:49:43;;;;;;;;;;;;;;;18.66;32.07;102759.06;4940417;29;883;-55
2022/03/14 10:52:13;;;;;;;;;;;;;;;18.63;32.31;102756.78;4940651;29;942;-56
2022/03/14 10:54:39;;;;;;;;;;;;;;;18.51;32.32;102750.44;4944954;28;934;-55
2022/03/14 10:57:04;;;;;;;;;;;;;;;18.55;32.52;102746.13;4959036;28;835;-56
2022/03/14 10:59:33;;;;;;;;;;;;;;;18.57;32.42;102749.50;4958457;28;1977;-54
2022/03/14 11:01:59;;;;;;;;;;;;;;;18.43;32.70;102748.88;4949043;28;978;-54
2022/03/14 11:04:28;;;;;;;;;;;;;;;18.33;32.92;102746.72;4940314;28;994;-55
2022/03/14 11:06:59;;;;;;;;;;;;;;;18.37;32.75;102742.41;4940701;29;851;-55
2022/03/14 11:09:44;;;;;;;;;;;;;;;18.46;32.49;102742.91;4948532;28;1301;-55
2022/03/14 11:12:14;;;;;;;;;;;;;;;18.44;32.66;102747.81;4940296;29;811;-54
2022/03/14 11:14:39;;;;;;;;;;;;;;;18.39;32.68;102745.75;4946302;29;822;-55
2022/03/14 11:17:11;;;;;;;;;;;;;;;18.34;32.65;102742.91;4947988;29;992;-55
2022/03/14 11:19:37;;;;;;;;;;;;;;;18.46;32.36;102749.22;4950416;28;1906;-54
2022/03/14 11:22:03;;;;;;;;;;;;;;;18.26;33.05;102738.56;4957192;29;1190;-55
2022/03/14 11:24:29;;;;;;;;;;;;;;;18.25;33.04;102747.88;4957513;29;810;-55
2022/03/14 11:26:54;;;;;;;;;;;;;;;18.24;32.79;102737.13;4950928;29;818;-54
2022/03/14 11:29:21;;;;;;;;;;;;;;;18.29;32.81;102742.75;4948780;29;1086;-54
2022/03/14 11:31:48;;;;;;;;;;;;;;;18.38;32.87;102735.81;4951690;29;910;-53
2022/03/14 11:34:15;;;;;;;;;;;;;;;18.20;33.02;102727.66;4939877;29;1137;-54
2022/03/14 11:36:40;;;;;;;;;;;;;;;18.19;32.95;102737.84;4938874;29;816;-51
2022/03/14 11:39:06;;;;;;;;;;;;;;;18.24;33.00;102726.09;4943262;29;1967;-54
2022/03/14 11:41:32;;;;;;;;;;;;;;;18.06;33.47;102736.13;4939651;29;810;-54
2022/03/14 11:43:58;;;;;;;;;;;;;;;17.79;33.69;102733.75;4938736;29;1424;-52
2022/03/14 11:46:23;;;;;;;;;;;;;;;17.88;33.62;102737.00;4942154;29;949;-53
2022/03/14 11:48:49;;;;;;;;;;;;;;;18.43;32.84;102729.59;4938436;29;865;-55
2022/03/14 11:51:15;;;;;;;;;;;;;;;18.73;31.94;102728.63;4939684;29;756;-54
2022/03/14 11:53:50;;;;;;;;;;;;;;;18.57;32.49;102732.97;4950449;29;1108;-55
2022/03/14 11:56:15;;;;;;;;;;;;;;;18.33;32.71;102734.84;4956827;28;1345;-55
2022/03/14 11:58:41;;;;;;;;;;;;;;;18.28;32.83;102719.03;4948516;29;1906;-54
2022/03/14 12:01:23;;;;;;;;;;;;;;;18.16;33.31;102726.44;4946305;28;1385;-55
2022/03/14 12:03:49;;;;;;;;;;;;;;;18.08;33.40;102730.41;4942004;28;1464;-55
2022/03/14 12:06:16;;;;;;;;;;;;;;;18.01;33.29;102733.25;4953842;29;1262;-54
2022/03/14 12:08:45;;;;;;;;;;;;;;;18.07;33.19;102724.03;4940773;29;1358;-54
2022/03/14 12:11:29;;;;;;;;;;;;;;;18.52;32.33;102724.56;4944610;29;757;-55
2022/03/14 12:13:54;;;;;;;;;;;;;;;18.92;31.92;102723.88;4959813;28;1002;-55
2022/03/14 12:16:39;;;;;;;;;;;;;;;19.29;31.26;102734.56;4961233;28;1236;-55
2022/03/14 12:19:23;;;;;;;;;;;;;;;18.73;32.09;102737.75;4956587;28;1977;-54
2022/03/14 12:21:52;;;;;;;;;;;;;;;18.38;32.70;102737.72;4963101;28;1280;-55
2022/03/14 12:24:40;;;;;;;;;;;;;;;18.02;33.55;102725.81;4954427;29;850;-53
2022/03/14 12:27:35;;;;;;;;;;;;;;;18.48;32.46;102729.69;4957780;28;1212;-54
2022/03/14 12:30:04;;;;;;;;;;;;;;;18.67;32.27;102727.69;4941933;28;1887;-57
2022/03/14 12:32:32;;;;;;;;;;;;;;;18.83;31.94;102737.16;4947828;29;1066;-57
2022/03/14 12:35:04;;;;;;;;;;;;;;;18.86;31.79;102741.31;4942435;28;1131;-55
2022/03/14 12:37:40;;;;;;;;;;;;;;;18.95;31.65;102739.91;4943439;29;835;-57
2022/03/14 12:40:06;;;;;;;;;;;;;;;19.00;31.62;102740.03;4943186;29;1973;-56
2022/03/14 12:42:39;;;;;;;;;;;;;;;18.65;32.09;102740.88;4944498;29;886;-57
2022/03/14 12:45:15;;;;;;;;;;;;;;;17.71;33.56;102742.34;4943040;29;827;-55
2022/03/14 12:47:41;;;;;;;;;;;;;;;17.54;34.05;102744.03;4946190;29;1000;-55
2022/03/14 12:50:07;;;;;;;;;;;;;;;17.37;34.42;102741.09;4957886;28;1115;-55